This is the latest recevied weather packets stored in our database for station/object N9UMJ-12. If no packets are shown the sender has not sent any weather packets the latest 10 day(s).
| Time | Temp. | Humidity | Pressure | Rain* | Wind** | Luminosity | Snow |
|---|---|---|---|---|---|---|---|
| 1778027121 | 11.11° C | 99% | 1008.1 hPa | 7.62 mm | - | 2 W/m² | - |
| 1778026522 | 11.11° C | 99% | 1007.9 hPa | 8.13 mm | - | 2 W/m² | - |
| 1778022342 | 16.11° C | 99% | 1007.4 hPa | 0.76 mm | - | 2 W/m² | - |
| 1778017523 | 16.11° C | 98% | 1007.5 hPa | 0.25 mm | - | 37 W/m² | - |
| 1778009731 | 16.11° C | 96% | 1008.7 hPa | 0 mm | - | 123 W/m² | - |
| 1778001918 | 15° C | 96% | 1009.6 hPa | 4.06 mm | - | 85 W/m² | - |
| 1778001321 | 15° C | 95% | 1009.7 hPa | 3.81 mm | - | 75 W/m² | - |
| 1777995959 | 16.11° C | 87% | 1009.6 hPa | 0 mm | - | 99 W/m² | - |
| 1777992357 | 15.56° C | 89% | 1009.4 hPa | 0 mm | - | 182 W/m² | - |
| 1777985139 | 13.89° C | 97% | 1008.8 hPa | 0 mm | - | 123 W/m² | - |
| 1777976724 | 13.33° C | 98% | 1010 hPa | 3.05 mm | - | 0 W/m² | - |
| 1777975524 | 13.33° C | 97% | 1009.9 hPa | 3.81 mm | - | 0 W/m² | - |
| 1777974945 | 13.33° C | 97% | 1009.9 hPa | 3.81 mm | - | 0 W/m² | - |
| 1777970722 | 15° C | 89% | 1011.1 hPa | 1.27 mm | - | 0 W/m² | - |
| 1777956921 | 20.56° C | 62% | 1006.2 hPa | 0 mm | - | 0 W/m² | - |
| 1777954539 | 20.56° C | 62% | 1006.2 hPa | 0 mm | - | 0 W/m² | - |
| 1777953339 | 20.56° C | 61% | 1006.1 hPa | 0 mm | - | 0 W/m² | - |
| 1777943719 | 20.56° C | 62% | 1005.3 hPa | 0 mm | - | 0 W/m² | - |
| 1777941319 | 21.67° C | 60% | 1005.2 hPa | 0 mm | - | 8 W/m² | - |
| 1777939540 | 22.22° C | 58% | 1005.3 hPa | 0 mm | - | 46 W/m² | - |
| 1777934719 | 23.33° C | 55% | 1006.4 hPa | 0 mm | - | 199 W/m² | - |
| 1777933518 | 23.33° C | 54% | 1006.6 hPa | 0 mm | - | 173 W/m² | - |
| 1777931719 | 23.33° C | 55% | 1006.7 hPa | 0 mm | - | 166 W/m² | - |
| 1777928719 | 23.89° C | 53% | 1007.4 hPa | 0 mm | - | 299 W/m² | - |
| 1777925120 | 25° C | 51% | 1007.7 hPa | 0 mm | - | 523 W/m² | - |
* Rain latest hour (hover to see other rain measurements)
** Current wind speed in m/s (hover to see current wind gust speed)